createdAt,value
2023-04-23T00:02:59.032Z,51.41
2023-04-23T00:06:05.676Z,51.65
2023-04-23T00:09:08.610Z,51.74
2023-04-23T00:12:12.089Z,51.71
2023-04-23T00:15:16.376Z,52.11
2023-04-23T00:18:20.056Z,51.64
2023-04-23T00:21:24.152Z,51.96
2023-04-23T00:24:26.904Z,52.21
2023-04-23T00:27:29.500Z,53.25
2023-04-23T00:30:32.327Z,53.72
2023-04-23T00:33:34.976Z,53.98
2023-04-23T00:36:39.117Z,54.33
2023-04-23T00:39:41.840Z,55.36
2023-04-23T00:42:45.686Z,54.81
2023-04-23T00:45:48.909Z,55.08
2023-04-23T00:48:52.113Z,55.83
2023-04-23T00:51:56.209Z,58.23
2023-04-23T00:54:58.880Z,59.05
2023-04-23T01:01:30.244Z,60.71
2023-04-23T01:04:33.460Z,62.25
2023-04-23T01:07:38.093Z,61.19
2023-04-23T01:10:40.991Z,62.24
2023-04-23T01:13:44.204Z,62.21
2023-04-23T01:16:47.180Z,62.34
2023-04-23T01:19:49.762Z,61.92
2023-04-23T01:22:54.034Z,61.62
2023-04-23T01:25:57.640Z,61.38
2023-04-23T01:29:01.000Z,60.47
2023-04-23T01:32:04.087Z,60.57
2023-04-23T01:35:08.298Z,61.39
2023-04-23T01:38:12.972Z,61.38
2023-04-23T01:41:15.620Z,62.10
2023-04-23T01:44:18.224Z,61.73
2023-04-23T01:47:21.441Z,61.17
2023-04-23T01:50:26.172Z,61.00
2023-04-23T01:53:30.184Z,61.27
2023-04-23T01:56:35.055Z,60.40
2023-04-23T01:59:38.361Z,60.67
2023-04-23T02:02:42.382Z,61.39
2023-04-23T02:05:45.647Z,61.61
2023-04-23T02:08:49.800Z,61.89
2023-04-23T02:11:52.469Z,62.42
2023-04-23T02:14:55.293Z,62.48
2023-04-23T02:17:58.001Z,62.69
2023-04-23T02:21:01.926Z,63.42
2023-04-23T02:24:07.026Z,65.70
2023-04-23T02:27:09.593Z,67.82
2023-04-23T02:30:13.010Z,69.30
2023-04-23T02:33:15.580Z,69.89
2023-04-23T02:36:18.302Z,71.20
2023-04-23T02:39:22.260Z,71.79
2023-04-23T02:42:24.943Z,71.91
2023-04-23T02:45:27.638Z,73.57
2023-04-23T02:48:30.764Z,71.82
2023-04-23T02:51:33.695Z,73.07
2023-04-23T02:54:37.742Z,73.95
2023-04-23T02:57:40.979Z,73.96
2023-04-23T03:00:43.608Z,74.07
2023-04-23T03:03:46.361Z,72.63
2023-04-23T03:06:49.082Z,72.63
2023-04-23T03:09:53.100Z,72.36
2023-04-23T03:12:56.425Z,71.89
2023-04-23T03:15:58.960Z,70.75
2023-04-23T03:19:02.028Z,70.69
2023-04-23T03:22:05.775Z,70.49
2023-04-23T03:25:10.157Z,70.86
2023-04-23T03:28:12.788Z,70.99
2023-04-23T03:31:15.326Z,72.14
2023-04-23T03:34:17.832Z,71.70
2023-04-23T03:37:20.311Z,71.77
2023-04-23T03:40:24.283Z,72.61
2023-04-23T03:43:27.019Z,73.24
2023-04-23T03:46:29.722Z,72.82
2023-04-23T03:49:32.353Z,72.78
2023-04-23T03:52:35.209Z,72.65
2023-04-23T03:55:39.120Z,73.22
2023-04-23T03:58:41.693Z,73.91
2023-04-23T04:01:44.314Z,74.08
2023-04-23T04:04:49.654Z,73.39
2023-04-23T04:07:52.375Z,73.50
2023-04-23T04:10:57.034Z,72.23
2023-04-23T04:13:59.598Z,72.55
2023-04-23T04:17:02.152Z,73.29
2023-04-23T04:20:06.778Z,73.66
2023-04-23T04:23:09.275Z,74.73
2023-04-23T04:26:14.794Z,76.21
2023-04-23T04:29:17.283Z,76.25
2023-04-23T04:32:19.817Z,77.33
2023-04-23T04:35:22.579Z,77.39
2023-04-23T04:38:25.110Z,76.92
2023-04-23T04:41:29.031Z,76.41
2023-04-23T04:44:32.224Z,75.77
2023-04-23T04:47:34.873Z,74.43
2023-04-23T04:50:37.621Z,74.42
2023-04-23T04:53:40.194Z,73.92
2023-04-23T04:56:44.036Z,74.99
2023-04-23T04:59:46.929Z,75.53
2023-04-23T05:02:49.988Z,74.72
2023-04-23T05:05:54.997Z,74.38
2023-04-23T05:08:57.707Z,73.51
2023-04-23T05:12:01.922Z,72.28
2023-04-23T05:15:05.393Z,70.90
2023-04-23T05:18:07.826Z,69.92
2023-04-23T05:21:11.507Z,69.15
2023-04-23T05:24:13.979Z,68.41
2023-04-23T05:27:17.907Z,67.96
2023-04-23T05:30:20.498Z,66.91
2023-04-23T05:33:23.033Z,64.58
2023-04-23T05:36:25.903Z,64.50
2023-04-23T05:39:28.436Z,64.09
2023-04-23T05:42:32.295Z,62.90
2023-04-23T05:45:35.028Z,63.54
2023-04-23T05:48:37.589Z,62.97
2023-04-23T05:51:40.259Z,62.87
2023-04-23T05:54:43.070Z,62.73
2023-04-23T05:57:47.504Z,62.62
2023-04-23T06:00:50.570Z,62.75
2023-04-23T06:03:53.325Z,62.55
2023-04-23T06:06:56.029Z,63.00
2023-04-23T06:09:58.558Z,61.56
2023-04-23T06:13:02.465Z,59.84
2023-04-23T06:16:05.068Z,58.37
2023-04-23T06:19:07.622Z,59.07
2023-04-23T06:22:10.492Z,58.94
2023-04-23T06:25:12.975Z,58.60
2023-04-23T06:28:17.110Z,59.05
2023-04-23T06:31:20.196Z,57.81
2023-04-23T06:34:22.870Z,58.26
2023-04-23T06:37:27.514Z,57.72
2023-04-23T06:40:32.346Z,57.05
2023-04-23T06:43:36.748Z,57.15
2023-04-23T06:46:39.428Z,56.10
2023-04-23T06:49:42.028Z,55.27
2023-04-23T06:52:44.691Z,56.42
2023-04-23T06:55:47.218Z,56.55
2023-04-23T06:58:51.502Z,56.68
2023-04-23T07:01:54.179Z,55.58
2023-04-23T07:04:56.720Z,54.61
2023-04-23T07:07:59.358Z,53.64
2023-04-23T07:11:02.831Z,52.27
2023-04-23T07:14:06.898Z,53.22
2023-04-23T07:17:10.993Z,51.30
2023-04-23T07:20:13.627Z,50.00
2023-04-23T07:23:16.346Z,48.15
2023-04-23T07:26:18.949Z,46.40
2023-04-23T07:29:23.132Z,47.44
2023-04-23T07:32:28.373Z,46.95
2023-04-23T07:35:31.466Z,47.88
2023-04-23T07:38:34.028Z,48.00
2023-04-23T07:41:37.469Z,46.70
2023-04-23T07:44:41.982Z,45.92
2023-04-23T07:47:46.393Z,44.96
2023-04-23T07:50:49.175Z,44.17
2023-04-23T07:53:54.202Z,44.04
2023-04-23T07:56:57.393Z,43.20
2023-04-23T08:00:01.546Z,43.41
2023-04-23T08:03:04.379Z,42.26
2023-04-23T08:06:07.534Z,41.41
2023-04-23T08:09:10.223Z,43.16
2023-04-23T08:12:12.791Z,44.16
2023-04-23T08:15:16.916Z,45.61
2023-04-23T08:18:19.463Z,46.47
2023-04-23T08:21:22.454Z,45.97
2023-04-23T08:24:24.989Z,45.86
2023-04-23T08:27:27.873Z,44.97
2023-04-23T08:30:31.867Z,42.63
2023-04-23T08:33:34.393Z,41.32
2023-04-23T08:36:37.457Z,41.09
2023-04-23T08:39:40.783Z,41.46
2023-04-23T08:42:44.881Z,41.68
2023-04-23T08:45:49.992Z,41.19
2023-04-23T08:48:53.649Z,41.68
2023-04-23T08:51:57.410Z,40.70
2023-04-23T08:55:02.664Z,40.19
2023-04-23T08:58:07.872Z,38.60
2023-04-23T09:01:12.193Z,37.93
2023-04-23T09:04:16.892Z,37.89
2023-04-23T09:07:19.798Z,36.56
2023-04-23T09:10:22.624Z,35.76
2023-04-23T09:13:25.700Z,34.49
2023-04-23T09:16:29.800Z,33.10
2023-04-23T09:19:32.604Z,33.10
2023-04-23T09:22:44.356Z,32.58
2023-04-23T09:25:48.863Z,32.98
2023-04-23T09:28:52.373Z,32.60
2023-04-23T09:31:57.513Z,33.03
2023-04-23T09:35:00.183Z,32.98
2023-04-23T09:38:06.055Z,33.39
2023-04-23T09:41:22.637Z,33.53
2023-04-23T09:44:26.484Z,33.57
2023-04-23T09:47:33.333Z,33.48
2023-04-23T09:50:38.352Z,35.06
2023-04-23T09:53:42.759Z,34.74
2023-04-23T09:56:46.358Z,35.01
2023-04-23T09:59:53.070Z,34.75
2023-04-23T10:03:05.017Z,33.84
2023-04-23T10:06:17.280Z,33.53
2023-04-23T10:09:29.879Z,31.95
2023-04-23T10:12:52.266Z,32.48
2023-04-23T10:15:57.822Z,31.06
2023-04-23T10:19:03.645Z,30.36
2023-04-23T10:22:18.609Z,31.10
2023-04-23T10:25:22.451Z,30.49
2023-04-23T10:28:29.214Z,32.86
2023-04-23T10:31:33.986Z,32.20
2023-04-23T10:34:38.320Z,31.62
2023-04-23T10:37:41.612Z,29.71
2023-04-23T10:40:46.643Z,29.46
2023-04-23T10:43:49.287Z,29.90
2023-04-23T10:46:53.751Z,30.38
2023-04-23T10:49:57.927Z,31.70
2023-04-23T10:53:00.579Z,29.99
2023-04-23T10:56:07.669Z,31.34
2023-04-23T10:59:19.530Z,31.35
2023-04-23T11:02:24.924Z,30.76
2023-04-23T11:05:29.370Z,31.23
2023-04-23T11:08:33.074Z,29.07
2023-04-23T11:11:40.839Z,29.70
2023-04-23T11:14:48.089Z,29.45
2023-04-23T11:18:00.922Z,28.04
2023-04-23T11:21:07.175Z,30.29
2023-04-23T11:24:09.982Z,30.69
2023-04-23T11:27:14.069Z,29.88
2023-04-23T11:30:18.419Z,30.83
2023-04-23T11:33:21.252Z,30.12
2023-04-23T11:36:25.952Z,28.71
2023-04-23T11:39:28.646Z,27.63
2023-04-23T11:42:31.539Z,26.24
2023-04-23T11:45:34.156Z,25.36
2023-04-23T11:48:36.884Z,25.52
2023-04-23T11:51:46.528Z,25.65
2023-04-23T11:54:49.119Z,25.06
2023-04-23T11:57:53.499Z,25.71
2023-04-23T12:00:59.228Z,26.69
2023-04-23T12:04:02.075Z,26.38
2023-04-23T12:07:19.306Z,25.30
2023-04-23T12:10:26.120Z,26.50
2023-04-23T12:13:31.323Z,26.69
2023-04-23T12:16:38.743Z,27.32
2023-04-23T12:19:44.705Z,27.50
2023-04-23T12:22:49.207Z,29.29
2023-04-23T12:25:54.516Z,31.18
2023-04-23T12:29:00.227Z,30.73
2023-04-23T12:32:03.490Z,30.22
2023-04-23T12:35:07.182Z,28.72
2023-04-23T12:38:23.558Z,25.76
2023-04-23T12:41:26.299Z,24.83
2023-04-23T12:44:29.441Z,24.79
2023-04-23T12:47:32.172Z,24.94
2023-04-23T12:50:35.097Z,25.02
2023-04-23T12:53:39.019Z,26.70
2023-04-23T12:56:41.889Z,25.76
2023-04-23T12:59:44.874Z,25.01
2023-04-23T13:02:47.929Z,17.19
2023-04-23T13:05:51.318Z,13.73
2023-04-23T13:08:55.575Z,16.21
2023-04-23T13:12:00.160Z,14.73
2023-04-23T13:15:03.453Z,13.36
2023-04-23T13:18:06.873Z,13.89
2023-04-23T13:21:11.016Z,11.16
2023-04-23T13:24:15.021Z,11.80
2023-04-23T13:27:17.852Z,10.22
2023-04-23T13:30:20.540Z,9.29
2023-04-23T13:33:23.153Z,13.76
2023-04-23T13:36:26.348Z,14.83
2023-04-23T13:39:30.892Z,11.15
2023-04-23T13:42:34.260Z,12.98
2023-04-23T13:45:36.911Z,16.45
2023-04-23T13:48:39.546Z,16.02
2023-04-23T13:51:42.202Z,12.36
2023-04-23T13:54:47.784Z,12.86
2023-04-23T13:57:50.638Z,11.75
2023-04-23T14:00:53.920Z,10.80
2023-04-23T14:03:57.107Z,11.64
2023-04-23T14:06:59.754Z,15.29
2023-04-23T14:10:04.371Z,12.27
2023-04-23T14:13:07.096Z,12.58
2023-04-23T14:16:09.891Z,16.79
2023-04-23T14:19:12.598Z,17.35
2023-04-23T14:22:15.215Z,16.23
2023-04-23T14:25:24.831Z,16.24
2023-04-23T14:28:31.080Z,14.35
2023-04-23T14:31:33.990Z,14.76
2023-04-23T14:34:36.824Z,12.43
2023-04-23T14:37:43.057Z,11.83
2023-04-23T14:40:47.056Z,12.35
2023-04-23T14:43:49.713Z,15.74
2023-04-23T14:46:52.456Z,18.55
2023-04-23T14:49:57.487Z,20.20
2023-04-23T14:53:00.191Z,22.20
2023-04-23T14:56:05.420Z,23.15
2023-04-23T14:59:08.198Z,23.91
2023-04-23T15:02:12.042Z,25.05
2023-04-23T15:05:15.875Z,27.52
2023-04-23T15:08:18.519Z,28.00
2023-04-23T15:11:22.590Z,26.50
2023-04-23T15:14:27.060Z,25.27
2023-04-23T15:17:29.829Z,25.84
2023-04-23T15:20:32.546Z,25.60
2023-04-23T15:23:35.186Z,26.40
2023-04-23T15:26:39.335Z,26.54
2023-04-23T15:29:42.315Z,27.69
2023-04-23T15:32:45.085Z,27.73
2023-04-23T15:35:48.435Z,27.90
2023-04-23T15:38:51.177Z,28.32
2023-04-23T15:41:55.195Z,29.02
2023-04-23T15:44:57.775Z,32.28
2023-04-23T15:48:00.630Z,35.88
2023-04-23T15:51:03.401Z,43.32
2023-04-23T15:54:08.231Z,45.28
2023-04-23T15:57:13.087Z,45.10
2023-04-23T16:00:16.882Z,42.31
2023-04-23T16:03:19.891Z,40.73
2023-04-23T16:06:22.650Z,40.50
2023-04-23T16:09:25.221Z,40.17
2023-04-23T16:12:29.363Z,40.98
2023-04-23T16:15:31.998Z,41.44
2023-04-23T16:18:34.734Z,43.34
2023-04-23T16:21:37.277Z,43.42
2023-04-23T16:24:39.834Z,42.44
2023-04-23T16:27:43.967Z,41.58
2023-04-23T16:30:46.576Z,41.26
2023-04-23T16:33:49.165Z,42.97
2023-04-23T16:36:51.622Z,44.99
2023-04-23T16:39:54.241Z,66.15
2023-04-23T16:42:58.130Z,79.57
2023-04-23T16:46:00.662Z,84.40
2023-04-23T16:49:03.430Z,83.64
2023-04-23T16:52:05.930Z,83.28
2023-04-23T16:55:09.252Z,82.98
2023-04-23T16:58:13.096Z,84.89
2023-04-23T17:01:16.500Z,83.53
2023-04-23T17:04:19.141Z,83.54
2023-04-23T17:07:21.837Z,84.32
2023-04-23T17:10:24.521Z,82.74
2023-04-23T17:13:28.359Z,83.92
2023-04-23T17:16:31.043Z,82.87
2023-04-23T17:19:34.589Z,81.99
2023-04-23T17:22:37.200Z,80.99
2023-04-23T17:25:39.707Z,79.65
2023-04-23T17:28:43.650Z,81.31
2023-04-23T17:31:46.592Z,79.16
2023-04-23T17:34:53.912Z,79.23
2023-04-23T17:38:02.562Z,79.80
2023-04-23T17:41:05.705Z,80.36
2023-04-23T17:44:09.586Z,79.88
2023-04-23T17:47:14.024Z,78.98
2023-04-23T17:50:17.154Z,79.22
2023-04-23T17:53:19.677Z,79.73
2023-04-23T17:56:22.145Z,77.67
2023-04-23T17:59:26.068Z,77.24
2023-04-23T18:02:28.849Z,75.12
2023-04-23T18:05:31.819Z,77.17
2023-04-23T18:08:34.288Z,77.15
2023-04-23T18:15:05.966Z,76.67
2023-04-23T18:18:08.917Z,77.70
2023-04-23T18:21:13.367Z,78.62
2023-04-23T18:24:18.222Z,78.10
2023-04-23T18:27:20.914Z,80.23
2023-04-23T18:30:25.672Z,81.07
2023-04-23T18:33:32.702Z,82.08
2023-04-23T18:36:38.267Z,83.01
2023-04-23T18:39:41.476Z,82.49
2023-04-23T18:42:43.965Z,83.45
2023-04-23T18:45:47.955Z,83.69
2023-04-23T18:48:54.989Z,83.48
2023-04-23T18:51:57.995Z,84.17
2023-04-23T18:55:00.709Z,84.30
2023-04-23T18:58:03.240Z,85.03
2023-04-23T19:01:07.347Z,84.54
2023-04-23T19:04:10.225Z,84.81
2023-04-23T19:07:12.934Z,83.71
2023-04-23T19:10:16.434Z,82.99
2023-04-23T19:13:20.358Z,81.87
2023-04-23T19:16:24.312Z,80.39
2023-04-23T19:19:30.846Z,80.04
2023-04-23T19:22:33.367Z,80.16
2023-04-23T19:25:36.114Z,80.58
2023-04-23T19:28:38.644Z,78.87
2023-04-23T19:31:42.479Z,82.41
2023-04-23T19:34:45.629Z,85.01
2023-04-23T19:37:48.659Z,84.37
2023-04-23T19:40:51.289Z,83.94
2023-04-23T19:43:53.903Z,83.69
2023-04-23T19:46:57.846Z,82.43
2023-04-23T19:50:00.404Z,83.60
2023-04-23T19:53:03.019Z,83.05
2023-04-23T19:56:08.382Z,84.20
2023-04-23T19:59:13.840Z,83.41
2023-04-23T20:02:18.843Z,82.10
2023-04-23T20:05:22.043Z,82.13
2023-04-23T20:08:29.677Z,82.00
2023-04-23T20:11:32.225Z,83.14
2023-04-23T20:14:34.850Z,81.53
2023-04-23T20:17:39.056Z,80.86
2023-04-23T20:20:42.688Z,80.69
2023-04-23T20:23:45.042Z,79.20
2023-04-23T20:26:47.884Z,77.92
2023-04-23T20:29:50.497Z,77.48
2023-04-23T20:32:54.537Z,76.42
2023-04-23T20:35:58.770Z,76.63
2023-04-23T20:39:03.274Z,75.83
2023-04-23T20:42:07.043Z,75.75
2023-04-23T20:45:11.609Z,74.86
2023-04-23T20:48:15.508Z,74.99
2023-04-23T20:51:18.151Z,74.24
2023-04-23T20:54:20.782Z,73.63
2023-04-23T20:57:23.295Z,73.80
2023-04-23T21:00:27.856Z,73.19
2023-04-23T21:03:32.989Z,72.28
2023-04-23T21:06:35.956Z,72.06
2023-04-23T21:09:38.560Z,73.29
2023-04-23T21:12:43.465Z,71.97
2023-04-23T21:15:46.178Z,72.56
2023-04-23T21:18:51.062Z,71.87
2023-04-23T21:21:53.667Z,71.61
2023-04-23T21:24:56.576Z,72.27
2023-04-23T21:27:59.430Z,72.52
2023-04-23T21:31:06.962Z,71.92
2023-04-23T21:34:11.102Z,71.38
2023-04-23T21:37:13.627Z,71.33
2023-04-23T21:40:16.154Z,70.58
2023-04-23T21:43:18.776Z,71.43
2023-04-23T21:46:24.035Z,71.93
2023-04-23T21:49:27.984Z,71.72
2023-04-23T21:52:31.221Z,71.01
2023-04-23T21:55:33.792Z,70.91
2023-04-23T21:58:36.309Z,70.98
2023-04-23T22:01:38.840Z,72.20
2023-04-23T22:04:44.534Z,71.44
2023-04-23T22:07:47.632Z,71.62
2023-04-23T22:10:50.246Z,71.44
2023-04-23T22:13:52.769Z,71.79
2023-04-23T22:16:55.330Z,71.78
2023-04-23T22:19:59.282Z,71.50
2023-04-23T22:23:01.820Z,72.35
2023-04-23T22:26:04.409Z,71.86
2023-04-23T22:29:06.967Z,71.52
2023-04-23T22:32:09.563Z,71.42
2023-04-23T22:35:13.647Z,70.73
2023-04-23T22:38:16.567Z,70.31
2023-04-23T22:41:19.116Z,70.71
2023-04-23T22:44:21.670Z,70.94
2023-04-23T22:47:24.254Z,70.36
2023-04-23T22:50:29.535Z,69.86
2023-04-23T22:53:32.132Z,68.97
2023-04-23T22:56:34.661Z,69.21
2023-04-23T22:59:37.260Z,68.87
2023-04-23T23:02:40.060Z,68.84
2023-04-23T23:05:44.098Z,68.80
2023-04-23T23:08:46.608Z,68.26
2023-04-23T23:11:49.147Z,67.36
2023-04-23T23:14:51.725Z,67.37
2023-04-23T23:17:54.766Z,68.20
2023-04-23T23:20:58.833Z,68.39
2023-04-23T23:24:01.377Z,68.00
2023-04-23T23:27:04.008Z,68.73
2023-04-23T23:30:09.647Z,68.16
2023-04-23T23:33:12.326Z,67.67
2023-04-23T23:36:16.354Z,67.75
2023-04-23T23:39:20.618Z,67.58
2023-04-23T23:42:23.143Z,67.75
2023-04-23T23:45:25.931Z,67.51
2023-04-23T23:48:28.525Z,67.40
2023-04-23T23:51:32.542Z,67.27
2023-04-23T23:54:35.264Z,66.81
2023-04-23T23:57:37.794Z,66.53
